CheckWX is a tool to help pilots better visualize weather data.  It is not intended as a substitute for an official pre-flight weather briefing.

15:31:24 UTC

PALH METAR
Lake Hood Seaplane Base
Anchorage, Alaska, USA
Current

38 mins ago

PALH 171453Z 02006KT 10SM BKN055 OVC075 02/M02 A2906 RMK AO2 RAE21 SLP841 P0000 60000 T00221017 58001
Observed
Oct-17 @ 14:53 UTC
Wind
  • 020° at 6 KTS
Visibility
10 SM
Flight Rules
VFR
Cloud Levels
  • Broken at 5,500' AGL
  • Overcast at 7,500' AGL
Temperature
C / 36°F
Dewpoint
-2°C / 28°F
Humidity
75%
Altimeter
29.06" Hg
Pressure
984.12 hPa
Current Rain
0.01"
Previous

2 hours ago

PALH 171353Z 04003KT 10SM -RA SCT041 OVC050 02/M01 A2906 RMK AO2 SLP842 P0000 T00171011
Observed
Oct-17 @ 13:53 UTC
Wind
  • 040° at 3 KTS
Visibility
10 SM
Flight Rules
VFR
Conditions
Light Rain
Cloud Levels
  • Scattered at 4,100' AGL
  • Overcast at 5,000' AGL
Temperature
C / 36°F
Dewpoint
-1°C / 30°F
Humidity
81%
Altimeter
29.06" Hg
Pressure
984.12 hPa
Current Rain
0.01"
Previous

3 hours ago

PALH 171253Z 04004KT 10SM -RA OVC065 01/M01 A2906 RMK AO2 SLP842 P0000 T00111011
Observed
Oct-17 @ 12:53 UTC
Wind
  • 040° at 4 KTS
Visibility
10 SM
Flight Rules
VFR
Conditions
Light Rain
Cloud Levels
  • Overcast at 6,500' AGL
Temperature
C / 34°F
Dewpoint
-1°C / 30°F
Humidity
87%
Altimeter
29.06" Hg
Pressure
984.12 hPa
Current Rain
0.01"